logo
Search for airport 
image banner adimage banner adimage banner ad
image banner ad

LOWK - Klagenfurt

Located in Klagenfurt, Austria

ICAO - LOWK, IATA - KLU

Data provided by Airmate  

General information

Coordinates: N46°38'34" E14°20'14"
Elevation is 1472 feet MSL.
 
View others Airports in Carinthia

Operational data

Special qualification required
Current time UTC:
Current local time:
Weather
METAR: LOWK 202320Z AUTO 29004KT 250V320 9999 FEW060 01/M02 Q1016
TAF: TAF LOWK 202315Z 2100/2124 VRB03KT 9999 FEW050 TX10/2113Z TN01/2104Z TEMPO 2110/2117 SHRA FEW055CB SCT060 PROB30 TEMPO 2112/2115 28015KT 4000 TSRA
View NOTAMs / SUP AIP / TFR affecting this airport [VIEW]
Communications frequencies: [VIEW]

Runways:

RWY identifierQFULength (ft)Width (ft)SurfaceLDA (ft)
10L106°8924148CON
28R286°8924148CON
10R106°242790GRS
28L286°242790GRS

Airport contact information

Address: Klagenfurt Austria

Handlers

Austrian Airlines Ag

Austrian Airlines Ag
[VIEW][VIEW]
+435176638321

Klagenfurt Ariport Handling

Klagenfurt Ariport Handling

Satellite view of LOWK